Time;durP1;ratioP1;P1;durP2;ratioP2;P2;SDS_P1;SDS_P2;PMS_P1;PMS_P2;Temp;Humidity;BMP_temperature;BMP_pressure;BME280_temperature;BME280_humidity;BME280_pressure;Samples;Min_cycle;Max_cycle;Signal;HPM_P1;HPM_P2
2023/08/27 00:01:11;;;;;;;11.93;7.40;;;;;;;20.91;67.32;96990.06;5129386;27;20558;-75
2023/08/27 00:03:36;;;;;;;13.47;7.30;;;;;;;20.90;67.64;96969.78;5131744;27;20191;-76
2023/08/27 00:06:02;;;;;;;10.57;7.00;;;;;;;20.94;67.39;96952.28;5118339;27;20179;-75
2023/08/27 00:08:28;;;;;;;8.93;7.10;;;;;;;20.93;67.01;96934.69;5117300;27;20253;-75
2023/08/27 00:11:00;;;;;;;7.40;6.60;;;;;;;20.92;66.92;96927.72;5143909;27;20180;-75
2023/08/27 00:13:25;;;;;;;13.00;7.93;;;;;;;20.91;66.85;96912.81;5136879;27;20535;-75
2023/08/27 00:15:51;;;;;;;9.70;7.87;;;;;;;20.90;66.88;96903.19;5142868;27;20512;-74
2023/08/27 00:18:16;;;;;;;10.17;7.40;;;;;;;20.91;66.95;96890.69;5135136;27;20707;-76
2023/08/27 00:20:42;;;;;;;11.43;7.80;;;;;;;20.92;67.45;96900.31;5141746;27;20660;-74
2023/08/27 00:23:13;;;;;;;8.27;7.43;;;;;;;20.96;67.50;96907.59;5137766;27;20304;-73
2023/08/27 00:25:39;;;;;;;8.77;7.77;;;;;;;20.96;67.00;96915.59;5142681;27;20212;-75
2023/08/27 00:28:06;;;;;;;11.30;7.50;;;;;;;20.95;67.54;96937.94;5140091;27;20809;-75
2023/08/27 00:30:32;;;;;;;11.20;8.70;;;;;;;20.92;67.16;96943.72;5128202;27;20653;-75
2023/08/27 00:32:57;;;;;;;10.00;8.73;;;;;;;20.87;67.52;96948.91;5139973;27;20505;-75
2023/08/27 00:35:23;;;;;;;10.70;8.90;;;;;;;20.88;67.58;96969.19;5131976;27;20208;-76
2023/08/27 00:37:49;;;;;;;9.93;8.93;;;;;;;20.87;67.94;96975.53;5141862;27;20231;-76
2023/08/27 00:40:15;;;;;;;9.50;8.20;;;;;;;20.89;68.15;96976.16;5133658;27;20792;-76
2023/08/27 00:42:40;;;;;;;10.30;8.90;;;;;;;20.92;68.02;96958.91;5138395;27;20414;-75
2023/08/27 00:45:06;;;;;;;13.53;8.90;;;;;;;20.95;68.36;96966.44;5138757;27;20692;-75
2023/08/27 00:47:35;;;;;;;13.73;9.87;;;;;;;20.95;67.99;96982.41;5130971;27;20574;-76
2023/08/27 00:50:01;;;;;;;11.80;9.20;;;;;;;20.95;68.22;96996.53;5122996;27;20182;-75
2023/08/27 00:52:27;;;;;;;13.53;8.60;;;;;;;20.93;68.48;96985.28;5131632;27;20487;-74
2023/08/27 00:54:54;;;;;;;11.13;8.87;;;;;;;20.95;68.09;96993.88;5133936;27;20426;-75
2023/08/27 00:57:20;;;;;;;18.37;8.27;;;;;;;20.95;68.24;97001.88;5118516;27;20215;-76
2023/08/27 00:59:46;;;;;;;15.30;8.60;;;;;;;20.96;68.35;96990.19;5117414;27;20484;-72
2023/08/27 01:02:11;;;;;;;10.53;9.53;;;;;;;20.96;68.42;96992.84;5118451;27;20828;-75
2023/08/27 01:04:36;;;;;;;10.80;9.10;;;;;;;20.97;68.18;96991.81;5139080;27;20183;-76
2023/08/27 01:07:11;;;;;;;12.00;8.57;;;;;;;20.99;68.37;96988.91;5108630;28;20299;-74
2023/08/27 01:09:42;;;;;;;10.20;7.30;;;;;;;21.04;68.16;96985.59;5110511;27;20183;-75
2023/08/27 01:12:11;;;;;;;7.80;7.10;;;;;;;21.05;68.09;96984.53;5112699;27;20501;-75
2023/08/27 01:14:37;;;;;;;8.73;6.53;;;;;;;21.02;68.21;96969.81;5112447;27;20433;-74
2023/08/27 01:17:06;;;;;;;10.83;7.20;;;;;;;21.01;68.23;96968.19;5142515;27;20465;-74
2023/08/27 01:19:32;;;;;;;9.00;7.60;;;;;;;21.02;68.53;96962.66;5134967;27;20432;-75
2023/08/27 01:21:57;;;;;;;7.77;7.07;;;;;;;21.05;67.98;96957.91;5130552;27;20414;-76
2023/08/27 01:24:23;;;;;;;7.73;6.60;;;;;;;21.02;67.92;96954.66;5122371;27;20417;-75
2023/08/27 01:26:58;;;;;;;10.60;6.90;;;;;;;21.05;67.90;96944.56;5140363;27;20707;-76
2023/08/27 01:29:33;;;;;;;13.80;7.47;;;;;;;21.01;68.09;96945.06;5123894;27;20195;-76
2023/08/27 01:32:14;;;;;;;8.10;7.30;;;;;;;21.04;67.96;96937.66;5138642;27;20414;-76
2023/08/27 01:34:41;;;;;;;15.63;7.87;;;;;;;21.05;68.12;96945.41;5140573;27;20446;-76
2023/08/27 01:37:09;;;;;;;7.87;6.70;;;;;;;21.09;68.30;96946.59;5129896;27;20560;-75
2023/08/27 01:39:35;;;;;;;7.40;6.70;;;;;;;21.09;68.21;96949.25;5112000;27;20417;-76
2023/08/27 01:42:00;;;;;;;9.03;7.47;;;;;;;21.09;68.25;96951.91;5129942;27;20427;-75
2023/08/27 01:44:26;;;;;;;8.20;7.40;;;;;;;21.01;68.29;96945.06;5118369;27;20256;-77
2023/08/27 01:46:51;;;;;;;11.50;8.40;;;;;;;21.01;67.97;96949.53;5129976;27;20291;-73
2023/08/27 01:49:16;;;;;;;15.90;8.80;;;;;;;21.02;68.15;96952.00;5131288;27;20685;-75
2023/08/27 01:51:42;;;;;;;12.70;7.93;;;;;;;21.00;68.17;96937.25;5135959;27;20286;-76
2023/08/27 01:54:07;;;;;;;16.80;8.70;;;;;;;21.01;68.21;96928.25;5131693;27;20211;-73
2023/08/27 01:56:33;;;;;;;8.70;7.80;;;;;;;20.93;68.28;96923.22;5129840;27;20188;-75
2023/08/27 01:58:58;;;;;;;11.17;8.30;;;;;;;20.93;68.21;96929.38;5115211;27;20181;-74
2023/08/27 02:01:24;;;;;;;10.57;7.83;;;;;;;20.91;68.43;96939.44;5125028;27;20263;-74
2023/08/27 02:03:49;;;;;;;10.40;7.20;;;;;;;20.92;68.69;96942.91;5139812;27;20561;-76
2023/08/27 02:06:15;;;;;;;8.93;7.23;;;;;;;20.91;68.74;96939.44;5145878;27;20245;-77
2023/08/27 02:08:40;;;;;;;12.70;7.67;;;;;;;20.95;68.82;96929.94;5129903;27;20434;-74
2023/08/27 02:11:06;;;;;;;8.50;7.60;;;;;;;20.96;69.10;96918.25;5138485;27;20649;-75
2023/08/27 02:13:31;;;;;;;14.20;8.20;;;;;;;20.99;69.11;96920.47;5120074;28;20198;-75
2023/08/27 02:15:57;;;;;;;7.83;6.97;;;;;;;21.02;69.13;96924.53;5131755;27;20204;-75
2023/08/27 02:21:44;;;;;;;12.67;6.80;;;;;;;21.07;68.70;96926.50;5120976;27;20186;-75
2023/08/27 02:24:10;;;;;;;12.97;7.30;;;;;;;21.09;68.23;96925.28;5133399;27;20445;-75
2023/08/27 02:26:35;;;;;;;9.60;7.87;;;;;;;21.05;68.29;96936.59;5134180;27;20206;-75
2023/08/27 02:29:01;;;;;;;10.43;7.50;;;;;;;21.00;68.34;96954.06;5128850;27;20196;-76
2023/08/27 02:31:27;;;;;;;11.20;7.83;;;;;;;20.98;68.68;96958.81;5119995;28;20208;-76
2023/08/27 02:33:52;;;;;;;9.07;8.17;;;;;;;20.96;68.81;96954.75;5118313;27;21197;-75
2023/08/27 02:36:18;;;;;;;8.90;8.00;;;;;;;20.96;68.46;96958.22;5116229;27;20661;-73
2023/08/27 02:38:43;;;;;;;9.10;8.17;;;;;;;20.95;68.58;96951.25;5118295;27;20911;-74
2023/08/27 02:41:09;;;;;;;8.80;7.30;;;;;;;20.97;68.72;96949.19;5146443;27;20259;-75
2023/08/27 02:43:34;;;;;;;10.10;7.80;;;;;;;21.00;68.54;96954.06;5133243;27;20255;-73
2023/08/27 02:46:00;;;;;;;9.50;8.30;;;;;;;20.95;68.80;96959.25;5129677;27;20251;-76
2023/08/27 02:48:25;;;;;;;14.27;7.47;;;;;;;20.96;69.36;96949.44;5110644;28;20204;-76
2023/08/27 02:50:50;;;;;;;12.63;8.30;;;;;;;20.95;68.88;96932.63;5128586;27;21030;-74
2023/08/27 02:53:16;;;;;;;8.50;7.60;;;;;;;20.92;69.22;96924.28;5131197;27;20184;-76
2023/08/27 02:55:41;;;;;;;9.53;8.03;;;;;;;20.97;69.39;96941.19;5137455;27;20345;-76
2023/08/27 02:58:07;;;;;;;15.10;7.17;;;;;;;20.97;69.56;96935.88;5137074;27;20201;-75
2023/08/27 03:00:32;;;;;;;9.13;7.83;;;;;;;20.99;69.76;96936.47;5133019;27;20268;-74
2023/08/27 03:02:58;;;;;;;9.77;7.73;;;;;;;21.00;69.62;96942.59;5145621;27;20215;-76
2023/08/27 03:05:23;;;;;;;13.13;8.03;;;;;;;20.99;69.74;96957.78;5138463;27;20204;-75
2023/08/27 03:07:49;;;;;;;11.77;8.00;;;;;;;20.99;69.58;96952.44;5142452;27;20620;-75
2023/08/27 03:10:14;;;;;;;15.83;8.10;;;;;;;21.00;69.43;96958.56;5129598;27;20637;-75
2023/08/27 03:12:40;;;;;;;9.40;7.87;;;;;;;21.00;69.79;96946.09;5128483;27;20189;-74
2023/08/27 03:15:06;;;;;;;12.57;10.00;;;;;;;20.97;69.24;96925.22;5132963;27;20191;-73
2023/08/27 03:17:32;;;;;;;9.77;8.77;;;;;;;20.95;69.97;96918.50;5139897;27;20290;-75
2023/08/27 03:19:57;;;;;;;8.80;7.53;;;;;;;20.93;70.16;96904.59;5143346;27;20502;-75
2023/08/27 03:22:23;;;;;;;7.53;6.83;;;;;;;20.94;70.10;96907.03;5113828;27;20271;-75
2023/08/27 03:24:48;;;;;;;8.93;7.67;;;;;;;20.93;70.02;96915.25;5123300;27;20210;-75
2023/08/27 03:27:14;;;;;;;8.83;7.00;;;;;;;20.87;69.56;96916.97;5136343;27;20198;-75
2023/08/27 03:29:39;;;;;;;8.13;6.00;;;;;;;20.87;69.81;96915.09;5146053;27;20762;-76
2023/08/27 03:32:05;;;;;;;10.70;6.60;;;;;;;20.85;69.78;96906.53;5134414;27;20207;-76
2023/08/27 03:34:31;;;;;;;8.30;7.00;;;;;;;20.81;69.89;96892.03;5149142;27;20389;-75
2023/08/27 03:36:57;;;;;;;7.67;6.87;;;;;;;20.82;69.48;96891.00;5127269;27;20296;-76
2023/08/27 03:39:22;;;;;;;8.43;7.40;;;;;;;20.77;69.77;96887.41;5119316;27;20184;-76
2023/08/27 03:41:48;;;;;;;7.90;7.10;;;;;;;20.81;69.89;96894.72;5137555;27;20223;-77
2023/08/27 03:44:13;;;;;;;9.43;6.43;;;;;;;20.82;70.39;96898.16;5160940;27;20207;-76
2023/08/27 03:46:42;;;;;;;8.10;6.33;;;;;;;20.83;70.36;96889.16;5154369;27;20188;-77
2023/08/27 03:49:07;;;;;;;9.73;6.60;;;;;;;20.78;69.90;96894.34;5146382;27;20188;-75
2023/08/27 03:51:33;;;;;;;7.80;6.70;;;;;;;20.77;69.70;96892.72;5164791;27;20437;-77
2023/08/27 03:53:58;;;;;;;7.83;6.47;;;;;;;20.74;69.99;96888.63;5144363;27;20189;-77
2023/08/27 03:56:24;;;;;;;8.43;7.00;;;;;;;20.76;70.06;96888.44;5154024;27;20203;-78
2023/08/27 03:58:50;;;;;;;8.20;6.30;;;;;;;20.77;69.91;96880.22;5136799;27;20189;-77
2023/08/27 04:01:15;;;;;;;8.90;6.23;;;;;;;20.77;70.05;96882.06;5153035;27;20232;-76
2023/08/27 04:03:40;;;;;;;6.20;5.70;;;;;;;20.79;69.98;96877.34;5139723;27;20184;-73
2023/08/27 04:06:07;;;;;;;6.77;6.07;;;;;;;20.76;70.19;96867.94;5132404;27;20222;-75
2023/08/27 04:08:32;;;;;;;6.80;6.20;;;;;;;20.78;70.16;96870.38;5134450;27;20242;-75
2023/08/27 04:10:57;;;;;;;8.60;6.33;;;;;;;20.78;70.21;96873.84;5119715;27;20978;-75
2023/08/27 04:13:23;;;;;;;6.93;6.23;;;;;;;20.78;70.33;96878.38;5136314;27;20234;-76
2023/08/27 04:15:59;;;;;;;6.50;5.90;;;;;;;20.82;70.42;96887.53;5145054;27;20579;-76
2023/08/27 04:18:25;;;;;;;6.77;6.17;;;;;;;20.81;70.64;96885.91;5132981;27;20203;-75
2023/08/27 04:20:51;;;;;;;6.37;5.43;;;;;;;20.83;70.50;96894.47;5123374;27;20431;-75
2023/08/27 04:23:16;;;;;;;11.63;5.27;;;;;;;20.82;70.05;96890.19;5119940;27;20475;-75
2023/08/27 04:25:45;;;;;;;4.50;3.70;;;;;;;20.79;69.60;96872.00;5140308;27;20267;-74
2023/08/27 04:28:10;;;;;;;5.57;5.07;;;;;;;20.82;69.27;96876.88;5139591;27;20218;-75
2023/08/27 04:30:36;;;;;;;4.37;3.97;;;;;;;20.79;69.02;96867.50;5131950;27;20422;-73
2023/08/27 04:33:01;;;;;;;4.30;3.90;;;;;;;20.78;69.20;96844.56;5113562;27;20291;-75
2023/08/27 04:35:27;;;;;;;7.17;5.37;;;;;;;20.75;69.62;96836.22;5122884;27;20273;-75
2023/08/27 04:37:52;;;;;;;6.13;5.27;;;;;;;20.76;69.92;96835.97;5143087;27;20222;-75
2023/08/27 04:40:17;;;;;;;5.90;5.00;;;;;;;20.77;69.88;96834.16;5122974;27;20172;-76
2023/08/27 04:42:43;;;;;;;6.20;4.90;;;;;;;20.77;70.37;96836.81;5133969;27;20188;-75
2023/08/27 04:45:09;;;;;;;6.40;4.23;;;;;;;20.78;70.50;96849.09;5132558;27;20208;-75
2023/08/27 04:47:35;;;;;;;16.13;5.13;;;;;;;20.79;70.08;96845.41;5140978;27;20277;-75
2023/08/27 04:50:00;;;;;;;5.37;4.00;;;;;;;20.74;69.75;96851.34;5127227;27;20417;-76
2023/08/27 04:52:26;;;;;;;5.70;4.63;;;;;;;20.75;69.89;96852.19;5132807;27;20209;-75
2023/08/27 04:54:51;;;;;;;3.57;3.30;;;;;;;20.74;69.64;96839.88;5110834;27;20213;-76
2023/08/27 04:57:17;;;;;;;4.50;4.03;;;;;;;20.71;69.89;96857.13;5121319;27;20772;-75
2023/08/27 04:59:42;;;;;;;3.97;3.63;;;;;;;20.74;69.80;96861.19;5131409;27;20263;-74
2023/08/27 05:02:07;;;;;;;7.10;3.63;;;;;;;20.77;69.60;96863.44;5137669;27;20223;-74
2023/08/27 05:04:33;;;;;;;4.23;3.80;;;;;;;20.75;69.82;96858.31;5123541;27;20271;-74
2023/08/27 05:06:58;;;;;;;4.97;3.50;;;;;;;20.75;70.08;96870.84;5130626;27;20554;-75
2023/08/27 05:09:25;;;;;;;3.90;3.50;;;;;;;20.77;69.80;96874.09;5121874;27;20193;-74
2023/08/27 05:11:51;;;;;;;3.93;3.60;;;;;;;20.78;70.20;96871.19;5138328;27;20189;-75
2023/08/27 05:14:16;;;;;;;3.37;3.07;;;;;;;20.82;69.97;96866.22;5131569;27;20455;-75
2023/08/27 05:16:42;;;;;;;3.67;3.37;;;;;;;20.82;70.04;96876.88;5139141;27;20227;-75
2023/08/27 05:19:07;;;;;;;4.97;3.17;;;;;;;20.82;70.52;96888.34;5147162;27;20176;-76
2023/08/27 05:21:33;;;;;;;5.23;3.97;;;;;;;20.85;70.46;96895.91;5133792;27;20654;-74
2023/08/27 05:23:59;;;;;;;7.13;4.07;;;;;;;20.87;70.41;96890.34;5137224;27;20433;-75
2023/08/27 05:26:24;;;;;;;7.17;6.47;;;;;;;20.85;70.01;96887.91;5130078;27;20208;-73
2023/08/27 05:28:50;;;;;;;5.17;4.67;;;;;;;20.87;70.03;96893.78;5137509;27;20840;-76
2023/08/27 05:31:15;;;;;;;6.40;3.87;;;;;;;20.86;70.18;96878.84;5120476;27;20206;-77
2023/08/27 05:33:41;;;;;;;4.80;3.80;;;;;;;20.86;70.38;96894.81;5130574;27;20183;-75
2023/08/27 05:36:06;;;;;;;3.83;3.40;;;;;;;20.86;70.54;96888.69;5129285;27;20228;-76
2023/08/27 05:38:32;;;;;;;11.93;3.10;;;;;;;20.85;69.91;96887.91;5123678;27;20249;-76
2023/08/27 05:40:58;;;;;;;3.03;2.60;;;;;;;20.86;69.87;96883.38;5125901;27;20192;-75
2023/08/27 05:43:24;;;;;;;3.40;3.10;;;;;;;20.89;69.99;96888.25;5129736;27;20694;-76
2023/08/27 05:45:49;;;;;;;6.93;3.00;;;;;;;20.90;70.00;96884.56;5123489;27;20415;-76
2023/08/27 05:48:15;;;;;;;3.53;3.23;;;;;;;20.90;70.22;96878.41;5132474;27;20200;-75
2023/08/27 05:50:40;;;;;;;3.67;3.37;;;;;;;20.96;70.49;96888.97;5129984;27;20207;-75
2023/08/27 05:53:05;;;;;;;4.00;3.53;;;;;;;20.98;70.59;96891.41;5138783;27;20232;-76
2023/08/27 05:55:31;;;;;;;3.63;3.30;;;;;;;20.99;70.31;96888.53;5126237;27;20183;-76
2023/08/27 05:57:57;;;;;;;5.80;3.20;;;;;;;21.00;70.03;96889.31;5129122;27;20203;-76
2023/08/27 06:00:22;;;;;;;2.87;2.50;;;;;;;20.96;70.03;96880.97;5130708;27;20211;-75
2023/08/27 06:02:48;;;;;;;3.03;2.73;;;;;;;20.93;69.26;96883.28;5123918;27;20181;-76
2023/08/27 06:05:13;;;;;;;4.03;2.70;;;;;;;20.94;69.02;96893.69;5136883;27;20539;-75
2023/08/27 06:07:39;;;;;;;4.70;2.50;;;;;;;20.89;68.94;96890.91;5137436;27;20196;-76
2023/08/27 06:10:05;;;;;;;3.70;2.00;;;;;;;20.91;68.42;96891.50;5121779;27;20184;-77
2023/08/27 06:12:31;;;;;;;2.90;2.30;;;;;;;20.94;68.44;96877.72;5121630;27;20185;-76
2023/08/27 06:14:56;;;;;;;3.93;2.23;;;;;;;20.92;68.04;96879.00;5118647;27;20417;-75
2023/08/27 06:17:21;;;;;;;4.70;2.30;;;;;;;20.93;67.83;96875.28;5130872;27;20235;-76
2023/08/27 06:19:47;;;;;;;2.47;2.27;;;;;;;20.91;68.06;96869.38;5129805;27;20184;-75
2023/08/27 06:22:12;;;;;;;6.83;3.33;;;;;;;20.96;68.14;96865.00;5110824;27;20244;-74
2023/08/27 06:24:38;;;;;;;4.43;2.10;;;;;;;21.03;68.03;96856.91;5091210;28;20264;-74
2023/08/27 06:27:03;;;;;;;2.80;2.00;;;;;;;21.07;67.47;96847.44;5125557;27;20224;-75
2023/08/27 06:29:29;;;;;;;2.27;2.07;;;;;;;21.12;68.15;96855.53;5120441;27;20188;-74
2023/08/27 06:31:55;;;;;;;2.30;2.10;;;;;;;21.18;67.87;96853.81;5121804;27;20185;-76
2023/08/27 06:34:20;;;;;;;3.70;2.20;;;;;;;21.22;67.53;96868.31;5129630;27;20179;-76
2023/08/27 06:36:46;;;;;;;2.33;2.00;;;;;;;21.19;67.58;96882.06;5135474;27;20556;-74
2023/08/27 06:39:11;;;;;;;2.23;1.67;;;;;;;21.10;67.77;96881.63;5148826;27;20224;-75
2023/08/27 06:41:37;;;;;;;4.80;2.20;;;;;;;21.12;68.05;96890.16;5119559;27;20174;-76
2023/08/27 06:44:03;;;;;;;1.50;1.40;;;;;;;21.18;68.16;96891.94;5128562;27;20184;-75
2023/08/27 06:46:28;;;;;;;3.20;1.90;;;;;;;21.07;68.55;96894.56;5139265;27;21425;-75
2023/08/27 06:48:53;;;;;;;1.70;1.60;;;;;;;21.17;68.47;96900.97;5133852;27;20236;-75
2023/08/27 06:51:19;;;;;;;1.93;1.73;;;;;;;21.18;68.38;96899.94;5133124;27;20287;-75
2023/08/27 06:53:44;;;;;;;5.90;2.00;;;;;;;21.23;68.02;96909.09;5139174;27;20218;-74
2023/08/27 06:56:10;;;;;;;4.80;2.03;;;;;;;21.18;68.23;96923.91;5153893;27;20302;-76
2023/08/27 06:58:35;;;;;;;3.57;2.23;;;;;;;21.19;68.19;96919.38;5142120;27;20204;-75
2023/08/27 07:01:04;;;;;;;4.03;1.90;;;;;;;21.24;68.18;96916.84;5133591;27;20210;-74
2023/08/27 07:03:30;;;;;;;3.20;2.43;;;;;;;21.25;68.02;96917.66;5136805;27;20541;-75
2023/08/27 07:05:56;;;;;;;3.73;2.53;;;;;;;21.22;67.81;96913.59;5138794;27;20422;-76
2023/08/27 07:08:21;;;;;;;2.07;1.90;;;;;;;21.26;67.75;96903.28;5133252;27;20449;-73
2023/08/27 07:10:47;;;;;;;3.03;2.17;;;;;;;21.25;67.85;96894.50;5139352;27;20187;-74
2023/08/27 07:13:13;;;;;;;6.27;2.30;;;;;;;21.30;67.43;96886.63;5136542;27;20185;-73
2023/08/27 07:15:38;;;;;;;4.60;2.33;;;;;;;21.32;67.21;96886.41;5115014;27;20426;-72
2023/08/27 07:18:04;;;;;;;2.90;2.07;;;;;;;21.38;67.73;96882.81;5139881;27;20203;-76
2023/08/27 07:20:29;;;;;;;5.17;2.30;;;;;;;21.39;67.28;96880.97;5125223;27;20263;-73
2023/08/27 07:22:55;;;;;;;4.23;2.40;;;;;;;21.43;67.12;96871.44;5130995;27;20271;-76
2023/08/27 07:25:23;;;;;;;2.50;2.30;;;;;;;21.44;67.01;96862.41;5141497;27;20867;-76
2023/08/27 07:27:48;;;;;;;1.97;1.80;;;;;;;21.47;67.01;96876.13;5138046;27;20196;-75
2023/08/27 07:30:14;;;;;;;2.40;2.20;;;;;;;21.50;67.37;96877.50;5136287;27;20948;-74
2023/08/27 07:32:39;;;;;;;4.93;2.00;;;;;;;21.55;67.20;96869.59;5136874;27;20581;-76
2023/08/27 07:35:05;;;;;;;5.10;2.10;;;;;;;21.62;66.97;96861.53;5152603;27;20236;-74
2023/08/27 07:37:30;;;;;;;1.83;1.73;;;;;;;21.59;66.42;96851.31;5139981;27;20265;-75
2023/08/27 07:39:56;;;;;;;4.40;1.80;;;;;;;21.58;66.29;96858.50;5127473;27;20312;-74
2023/08/27 07:42:21;;;;;;;2.20;2.00;;;;;;;21.65;66.32;96862.94;5141332;27;20183;-75
2023/08/27 07:44:47;;;;;;;3.20;2.00;;;;;;;21.64;65.87;96864.78;5132914;27;20283;-75
2023/08/27 07:47:13;;;;;;;1.83;1.73;;;;;;;21.70;66.00;96879.03;5127352;27;20196;-76
2023/08/27 07:49:38;;;;;;;5.47;1.97;;;;;;;21.67;65.81;96893.66;5146035;27;20198;-74
2023/08/27 07:52:04;;;;;;;5.10;1.67;;;;;;;21.62;65.30;96898.84;5141674;27;20184;-76
2023/08/27 07:54:29;;;;;;;1.70;1.60;;;;;;;21.62;65.56;96921.00;5133419;27;20215;-75
2023/08/27 07:56:55;;;;;;;3.30;1.93;;;;;;;21.60;65.43;96919.63;5139350;27;20208;-75
2023/08/27 07:59:20;;;;;;;1.70;1.60;;;;;;;21.65;65.59;96913.59;5156738;27;20259;-77
2023/08/27 08:01:46;;;;;;;3.00;1.80;;;;;;;21.70;65.63;96935.84;5150018;27;20191;-74
2023/08/27 08:04:11;;;;;;;2.00;1.43;;;;;;;21.68;65.04;96942.44;5150640;27;20180;-76
2023/08/27 08:06:36;;;;;;;7.00;1.80;;;;;;;21.66;64.91;96953.34;5146432;27;20188;-77
2023/08/27 08:09:02;;;;;;;4.10;1.57;;;;;;;21.68;64.39;96951.28;5147247;27;20200;-73
2023/08/27 08:11:27;;;;;;;2.47;1.90;;;;;;;21.63;64.48;96953.81;5132847;27;20310;-76
2023/08/27 08:13:53;;;;;;;5.90;1.43;;;;;;;21.61;64.08;96959.38;5145305;27;20191;-75
2023/08/27 08:16:20;;;;;;;2.53;1.70;;;;;;;21.56;64.22;96972.53;5147839;27;20291;-76
2023/08/27 08:18:46;;;;;;;5.70;1.47;;;;;;;21.62;64.06;96969.00;5144468;27;20264;-75
2023/08/27 08:21:11;;;;;;;1.70;1.33;;;;;;;21.65;64.28;96975.72;5144777;27;20414;-75
2023/08/27 08:23:37;;;;;;;1.20;1.10;;;;;;;21.70;64.05;96964.38;5152417;27;20190;-76
2023/08/27 08:26:04;;;;;;;1.60;1.37;;;;;;;21.74;64.12;96958.34;5139391;27;20260;-74
2023/08/27 08:28:29;;;;;;;3.73;1.30;;;;;;;21.81;64.22;96958.22;5135932;27;20224;-76
2023/08/27 08:30:55;;;;;;;1.37;1.27;;;;;;;21.87;64.65;96972.50;5133539;27;20452;-74
2023/08/27 08:33:21;;;;;;;2.90;1.30;;;;;;;21.87;64.16;96984.00;5105578;27;20187;-73
2023/08/27 08:35:46;;;;;;;3.77;1.50;;;;;;;21.86;63.92;96984.25;5145234;27;20184;-76
2023/08/27 08:38:11;;;;;;;3.20;1.70;;;;;;;21.87;63.86;96981.31;5137604;27;20627;-75
2023/08/27 08:40:48;;;;;;;1.90;1.67;;;;;;;21.94;64.35;96975.88;5124867;27;20244;-75
2023/08/27 08:43:27;;;;;;;2.23;1.63;;;;;;;21.98;64.14;96961.06;5136218;27;20548;-75
2023/08/27 08:46:01;;;;;;;2.00;1.53;;;;;;;22.02;64.35;96940.84;5132827;27;20421;-74
2023/08/27 08:48:39;;;;;;;2.13;1.30;;;;;;;22.05;63.79;96936.94;5146451;27;20817;-76
2023/08/27 08:51:06;;;;;;;2.57;1.43;;;;;;;22.14;63.48;96935.53;5136433;27;20517;-76
2023/08/27 08:53:36;;;;;;;4.03;1.30;;;;;;;22.18;62.40;96946.53;5122535;27;20429;-74
2023/08/27 08:56:04;;;;;;;1.43;1.30;;;;;;;22.16;62.00;96946.78;5139578;27;20541;-75
2023/08/27 08:58:33;;;;;;;2.20;1.17;;;;;;;22.15;62.25;96945.16;5111093;27;20450;-74
2023/08/27 09:00:58;;;;;;;1.50;1.30;;;;;;;22.16;61.93;96940.63;5077957;27;20517;-74
2023/08/27 09:03:25;;;;;;;1.50;1.40;;;;;;;22.20;61.82;96939.91;5094533;27;20959;-73
2023/08/27 09:05:51;;;;;;;1.90;1.50;;;;;;;22.23;61.69;96949.31;5084455;28;20650;-73
2023/08/27 09:08:17;;;;;;;6.73;1.50;;;;;;;22.12;62.11;96947.44;5099363;27;20442;-73
2023/08/27 09:10:42;;;;;;;3.03;1.50;;;;;;;22.18;62.14;96952.66;5131653;27;20176;-72
2023/08/27 09:13:08;;;;;;;4.63;1.50;;;;;;;22.26;62.44;96948.84;5131065;27;20425;-76
2023/08/27 09:15:33;;;;;;;3.13;1.43;;;;;;;22.29;62.34;96943.03;5122264;27;20251;-75
2023/08/27 09:17:59;;;;;;;2.30;1.20;;;;;;;22.37;62.30;96939.19;5131575;27;20200;-73
2023/08/27 09:20:25;;;;;;;5.57;1.43;;;;;;;22.40;61.96;96949.41;5139927;27;20180;-76
2023/08/27 09:22:50;;;;;;;2.23;1.10;;;;;;;22.46;61.71;96937.81;5138621;27;20184;-76
2023/08/27 09:25:18;;;;;;;2.00;1.50;;;;;;;22.50;61.23;96930.97;5130531;27;20172;-74
2023/08/27 09:27:44;;;;;;;1.97;1.60;;;;;;;22.60;60.84;96926.88;5149881;27;20211;-74
2023/08/27 09:30:10;;;;;;;1.90;1.40;;;;;;;22.71;60.85;96923.34;5145751;27;20415;-74
2023/08/27 09:32:36;;;;;;;2.50;1.40;;;;;;;22.86;61.11;96904.97;5140531;27;20462;-75
2023/08/27 09:35:05;;;;;;;2.43;1.73;;;;;;;23.05;60.74;96912.78;5133061;27;20415;-75
2023/08/27 09:37:40;;;;;;;4.60;1.40;;;;;;;23.27;59.70;96922.81;5125621;27;20286;-73
2023/08/27 09:40:07;;;;;;;1.93;1.40;;;;;;;23.44;59.57;96926.28;5130129;27;20413;-74
2023/08/27 09:42:33;;;;;;;3.17;1.40;;;;;;;23.60;59.66;96915.84;5146645;27;20413;-73
2023/08/27 09:44:58;;;;;;;1.93;1.30;;;;;;;23.68;58.86;96920.00;5138097;27;20410;-75
2023/08/27 09:47:31;;;;;;;2.13;1.40;;;;;;;23.73;58.13;96912.84;5119480;27;20602;-75
2023/08/27 09:49:57;;;;;;;1.90;1.60;;;;;;;23.81;57.63;96910.84;5131640;27;20183;-73
2023/08/27 09:52:24;;;;;;;3.77;1.50;;;;;;;23.77;56.09;96916.66;5138407;27;20471;-76
2023/08/27 09:54:51;;;;;;;2.40;1.30;;;;;;;23.83;56.41;96912.22;5138723;27;20783;-73
2023/08/27 09:57:17;;;;;;;3.00;1.30;;;;;;;23.86;56.67;96914.41;5138494;27;20489;-75
2023/08/27 09:59:43;;;;;;;2.10;1.40;;;;;;;23.90;56.70;96917.38;5129858;27;20421;-74
2023/08/27 10:02:12;;;;;;;6.60;1.60;;;;;;;23.86;55.61;96917.06;5138240;27;20513;-74
2023/08/27 10:04:48;;;;;;;1.80;1.70;;;;;;;23.86;55.94;96911.72;5130571;27;20598;-73
2023/08/27 10:07:14;;;;;;;5.00;1.57;;;;;;;23.86;55.01;96916.25;5122779;27;20429;-75
2023/08/27 10:09:39;;;;;;;2.40;1.37;;;;;;;23.77;55.42;96910.50;5129533;27;20414;-74
2023/08/27 10:12:05;;;;;;;1.43;1.33;;;;;;;23.82;55.90;96904.44;5130514;27;20946;-75
2023/08/27 10:14:31;;;;;;;3.70;1.63;;;;;;;23.88;55.69;96917.63;5149170;27;20171;-75
2023/08/27 10:16:57;;;;;;;2.53;1.70;;;;;;;23.96;55.79;96921.78;5109548;27;20231;-75
2023/08/27 10:19:22;;;;;;;2.03;1.60;;;;;;;24.00;55.47;96917.56;5125281;27;20176;-74
2023/08/27 10:21:48;;;;;;;1.83;1.57;;;;;;;24.04;54.61;96913.34;5145564;27;20685;-75
2023/08/27 10:24:14;;;;;;;3.20;1.30;;;;;;;24.06;54.24;96911.25;5121137;28;20199;-74
2023/08/27 10:26:43;;;;;;;2.30;1.40;;;;;;;24.12;54.21;96911.28;5136509;27;20536;-77
2023/08/27 10:29:09;;;;;;;3.33;1.83;;;;;;;24.26;54.05;96907.19;5144346;27;20232;-74
2023/08/27 10:31:34;;;;;;;3.53;1.60;;;;;;;24.46;54.21;96900.47;5117189;27;20511;-74
2023/08/27 10:33:59;;;;;;;2.17;1.40;;;;;;;24.62;53.58;96894.25;5100212;27;20182;-75
2023/08/27 10:36:28;;;;;;;5.00;1.73;;;;;;;24.68;53.18;96901.28;5123729;28;20204;-74
2023/08/27 10:38:54;;;;;;;2.63;1.47;;;;;;;24.73;53.05;96891.72;5111304;27;20204;-75
2023/08/27 10:41:23;;;;;;;4.67;1.53;;;;;;;24.70;51.96;96885.00;5111099;27;20424;-75
2023/08/27 10:43:49;;;;;;;2.33;1.67;;;;;;;24.67;51.67;96883.59;5131220;27;20638;-75
2023/08/27 10:46:15;;;;;;;2.90;1.40;;;;;;;24.66;51.01;96891.88;5139122;27;20460;-74
2023/08/27 10:48:48;;;;;;;2.50;1.80;;;;;;;24.65;51.20;96891.06;5131113;27;20227;-75
2023/08/27 10:51:14;;;;;;;2.23;1.40;;;;;;;24.64;51.52;96900.16;5136548;27;20787;-75
2023/08/27 10:53:49;;;;;;;1.77;1.50;;;;;;;24.60;51.23;96907.06;5131590;27;20418;-74
2023/08/27 10:56:29;;;;;;;4.33;1.70;;;;;;;24.59;51.64;96897.41;5133679;27;20286;-75
2023/08/27 10:59:02;;;;;;;2.33;1.53;;;;;;;24.62;51.76;96907.63;5085495;27;20453;-72
2023/08/27 11:01:28;;;;;;;1.40;1.30;;;;;;;24.65;51.33;96901.78;5129406;27;20414;-76
2023/08/27 11:04:05;;;;;;;7.13;1.97;;;;;;;24.67;52.11;96899.69;5149197;27;20472;-74
2023/08/27 11:06:46;;;;;;;1.90;1.70;;;;;;;24.66;50.62;96906.09;5133788;27;20934;-75
2023/08/27 11:09:22;;;;;;;2.27;1.90;;;;;;;24.72;50.89;96900.81;5132564;27;20422;-76
2023/08/27 11:11:52;;;;;;;2.40;1.60;;;;;;;24.77;50.45;96904.34;5121806;27;20418;-73
2023/08/27 11:14:19;;;;;;;7.07;1.80;;;;;;;24.89;50.41;96912.25;5144443;27;20446;-74
2023/08/27 11:16:44;;;;;;;4.33;1.70;;;;;;;25.03;51.00;96907.28;5108106;27;20450;-73
2023/08/27 11:19:11;;;;;;;1.87;1.77;;;;;;;25.04;50.04;96908.13;5136199;27;20474;-74
2023/08/27 11:21:41;;;;;;;2.17;1.53;;;;;;;24.89;49.19;96900.75;5141428;27;20171;-75
2023/08/27 11:24:18;;;;;;;8.97;1.63;;;;;;;24.92;48.81;96901.03;5116375;27;20413;-74
2023/08/27 11:26:46;;;;;;;4.30;1.50;;;;;;;24.98;49.06;96900.00;5115718;27;20918;-74
2023/08/27 11:29:11;;;;;;;5.33;1.93;;;;;;;24.97;49.11;96895.72;5136511;27;20430;-73
2023/08/27 11:31:41;;;;;;;2.10;1.60;;;;;;;25.03;49.08;96895.78;5130577;27;20492;-75